sensor_id;sensor_type;location;lat;lon;timestamp;P1;durP1;ratioP1;P2;durP2;ratioP2
36597;SDS011;22607;49.550;11.940;2023-02-18T00:01:20;12.90;;;6.85;;
36597;SDS011;22607;49.550;11.940;2023-02-18T00:03:48;10.50;;;6.30;;
36597;SDS011;22607;49.550;11.940;2023-02-18T00:06:19;10.15;;;5.78;;
36597;SDS011;22607;49.550;11.940;2023-02-18T00:08:48;10.52;;;5.30;;
36597;SDS011;22607;49.550;11.940;2023-02-18T00:11:15;10.10;;;5.55;;
36597;SDS011;22607;49.550;11.940;2023-02-18T00:13:48;11.77;;;6.22;;
36597;SDS011;22607;49.550;11.940;2023-02-18T00:16:15;11.13;;;6.18;;
36597;SDS011;22607;49.550;11.940;2023-02-18T00:18:42;11.15;;;5.82;;
36597;SDS011;22607;49.550;11.940;2023-02-18T00:21:08;10.60;;;6.60;;
36597;SDS011;22607;49.550;11.940;2023-02-18T00:23:35;10.35;;;6.55;;
36597;SDS011;22607;49.550;11.940;2023-02-18T00:26:06;10.60;;;6.55;;
36597;SDS011;22607;49.550;11.940;2023-02-18T00:28:35;11.43;;;5.97;;
36597;SDS011;22607;49.550;11.940;2023-02-18T00:31:05;9.93;;;5.20;;
36597;SDS011;22607;49.550;11.940;2023-02-18T00:33:36;10.38;;;5.93;;
36597;SDS011;22607;49.550;11.940;2023-02-18T00:36:03;11.18;;;5.70;;
36597;SDS011;22607;49.550;11.940;2023-02-18T00:38:32;9.95;;;5.82;;
36597;SDS011;22607;49.550;11.940;2023-02-18T00:40:59;10.40;;;5.68;;
36597;SDS011;22607;49.550;11.940;2023-02-18T00:43:26;10.10;;;5.57;;
36597;SDS011;22607;49.550;11.940;2023-02-18T00:45:53;12.85;;;6.63;;
36597;SDS011;22607;49.550;11.940;2023-02-18T00:48:20;9.90;;;5.65;;
36597;SDS011;22607;49.550;11.940;2023-02-18T00:50:46;9.70;;;5.68;;
36597;SDS011;22607;49.550;11.940;2023-02-18T00:53:13;10.18;;;5.78;;
36597;SDS011;22607;49.550;11.940;2023-02-18T00:55:40;12.00;;;5.65;;
36597;SDS011;22607;49.550;11.940;2023-02-18T00:58:09;9.45;;;4.97;;
36597;SDS011;22607;49.550;11.940;2023-02-18T01:00:36;10.15;;;5.20;;
36597;SDS011;22607;49.550;11.940;2023-02-18T01:03:03;9.68;;;5.63;;
36597;SDS011;22607;49.550;11.940;2023-02-18T01:05:32;9.57;;;5.10;;
36597;SDS011;22607;49.550;11.940;2023-02-18T01:08:02;9.50;;;5.25;;
36597;SDS011;22607;49.550;11.940;2023-02-18T01:10:28;9.80;;;5.13;;
36597;SDS011;22607;49.550;11.940;2023-02-18T01:12:55;10.23;;;4.65;;
36597;SDS011;22607;49.550;11.940;2023-02-18T01:15:21;9.10;;;4.70;;
36597;SDS011;22607;49.550;11.940;2023-02-18T01:17:48;10.32;;;5.32;;
36597;SDS011;22607;49.550;11.940;2023-02-18T01:20:18;9.05;;;4.45;;
36597;SDS011;22607;49.550;11.940;2023-02-18T01:22:44;9.70;;;5.10;;
36597;SDS011;22607;49.550;11.940;2023-02-18T01:25:11;8.88;;;4.80;;
36597;SDS011;22607;49.550;11.940;2023-02-18T01:27:38;9.48;;;4.35;;
36597;SDS011;22607;49.550;11.940;2023-02-18T01:30:06;8.93;;;4.30;;
36597;SDS011;22607;49.550;11.940;2023-02-18T01:32:34;8.57;;;4.20;;
36597;SDS011;22607;49.550;11.940;2023-02-18T01:35:01;8.45;;;4.28;;
36597;SDS011;22607;49.550;11.940;2023-02-18T01:37:30;8.68;;;4.43;;
36597;SDS011;22607;49.550;11.940;2023-02-18T01:39:56;8.57;;;4.38;;
36597;SDS011;22607;49.550;11.940;2023-02-18T01:42:25;8.68;;;4.00;;
36597;SDS011;22607;49.550;11.940;2023-02-18T01:44:54;10.90;;;4.37;;
36597;SDS011;22607;49.550;11.940;2023-02-18T01:48:11;8.95;;;4.63;;
36597;SDS011;22607;49.550;11.940;2023-02-18T01:50:43;9.63;;;4.90;;
36597;SDS011;22607;49.550;11.940;2023-02-18T01:53:13;8.90;;;4.07;;
36597;SDS011;22607;49.550;11.940;2023-02-18T01:55:41;8.70;;;4.13;;
36597;SDS011;22607;49.550;11.940;2023-02-18T01:58:08;9.40;;;4.30;;
36597;SDS011;22607;49.550;11.940;2023-02-18T02:00:39;10.55;;;5.40;;
36597;SDS011;22607;49.550;11.940;2023-02-18T02:03:06;8.30;;;4.05;;
36597;SDS011;22607;49.550;11.940;2023-02-18T02:05:33;8.85;;;4.28;;
36597;SDS011;22607;49.550;11.940;2023-02-18T02:08:00;8.77;;;3.92;;
36597;SDS011;22607;49.550;11.940;2023-02-18T02:10:29;8.60;;;4.30;;
36597;SDS011;22607;49.550;11.940;2023-02-18T02:13:12;8.38;;;3.60;;
36597;SDS011;22607;49.550;11.940;2023-02-18T02:33:05;8.45;;;3.85;;
36597;SDS011;22607;49.550;11.940;2023-02-18T02:38:13;8.30;;;4.10;;
36597;SDS011;22607;49.550;11.940;2023-02-18T02:46:08;8.02;;;3.55;;
36597;SDS011;22607;49.550;11.940;2023-02-18T02:48:48;8.30;;;3.28;;
36597;SDS011;22607;49.550;11.940;2023-02-18T02:53:52;8.40;;;3.55;;
36597;SDS011;22607;49.550;11.940;2023-02-18T02:56:22;7.40;;;3.10;;
36597;SDS011;22607;49.550;11.940;2023-02-18T02:59:00;7.60;;;2.70;;
36597;SDS011;22607;49.550;11.940;2023-02-18T03:01:36;7.78;;;3.05;;
36597;SDS011;22607;49.550;11.940;2023-02-18T03:13:32;7.10;;;2.80;;
36597;SDS011;22607;49.550;11.940;2023-02-18T03:22:22;7.07;;;3.10;;
36597;SDS011;22607;49.550;11.940;2023-02-18T03:24:33;6.93;;;2.90;;
36597;SDS011;22607;49.550;11.940;2023-02-18T03:27:13;6.38;;;2.20;;
36597;SDS011;22607;49.550;11.940;2023-02-18T03:29:44;6.43;;;2.40;;
36597;SDS011;22607;49.550;11.940;2023-02-18T03:32:15;5.97;;;2.10;;
36597;SDS011;22607;49.550;11.940;2023-02-18T03:34:45;6.10;;;2.10;;
36597;SDS011;22607;49.550;11.940;2023-02-18T03:37:18;6.18;;;2.03;;
36597;SDS011;22607;49.550;11.940;2023-02-18T03:39:47;5.32;;;1.80;;
36597;SDS011;22607;49.550;11.940;2023-02-18T03:42:16;5.55;;;1.80;;
36597;SDS011;22607;49.550;11.940;2023-02-18T03:44:43;5.18;;;1.77;;
36597;SDS011;22607;49.550;11.940;2023-02-18T03:47:10;5.38;;;1.77;;
36597;SDS011;22607;49.550;11.940;2023-02-18T03:49:39;6.38;;;1.70;;
36597;SDS011;22607;49.550;11.940;2023-02-18T03:52:06;4.35;;;1.35;;
36597;SDS011;22607;49.550;11.940;2023-02-18T03:54:32;3.85;;;1.30;;
36597;SDS011;22607;49.550;11.940;2023-02-18T03:56:59;4.57;;;1.42;;
36597;SDS011;22607;49.550;11.940;2023-02-18T03:59:26;4.20;;;1.45;;
36597;SDS011;22607;49.550;11.940;2023-02-18T04:01:53;4.78;;;1.35;;
36597;SDS011;22607;49.550;11.940;2023-02-18T04:04:19;4.00;;;1.20;;
36597;SDS011;22607;49.550;11.940;2023-02-18T04:06:46;4.88;;;1.40;;
36597;SDS011;22607;49.550;11.940;2023-02-18T04:09:12;5.07;;;1.20;;
36597;SDS011;22607;49.550;11.940;2023-02-18T04:11:39;3.53;;;1.08;;
36597;SDS011;22607;49.550;11.940;2023-02-18T04:14:06;2.65;;;1.08;;
36597;SDS011;22607;49.550;11.940;2023-02-18T04:16:33;4.93;;;1.42;;
36597;SDS011;22607;49.550;11.940;2023-02-18T04:18:59;4.28;;;1.20;;
36597;SDS011;22607;49.550;11.940;2023-02-18T04:21:27;3.88;;;1.45;;
36597;SDS011;22607;49.550;11.940;2023-02-18T04:23:53;6.22;;;1.90;;
36597;SDS011;22607;49.550;11.940;2023-02-18T04:28:59;5.18;;;1.70;;
36597;SDS011;22607;49.550;11.940;2023-02-18T04:31:25;6.20;;;1.90;;
36597;SDS011;22607;49.550;11.940;2023-02-18T04:33:52;5.75;;;1.77;;
36597;SDS011;22607;49.550;11.940;2023-02-18T04:36:19;5.75;;;1.75;;
36597;SDS011;22607;49.550;11.940;2023-02-18T04:38:45;6.35;;;2.22;;
36597;SDS011;22607;49.550;11.940;2023-02-18T04:41:16;6.50;;;2.40;;
36597;SDS011;22607;49.550;11.940;2023-02-18T04:43:42;5.82;;;1.95;;
36597;SDS011;22607;49.550;11.940;2023-02-18T04:46:09;5.88;;;2.13;;
36597;SDS011;22607;49.550;11.940;2023-02-18T04:48:36;5.70;;;1.80;;
36597;SDS011;22607;49.550;11.940;2023-02-18T04:51:09;5.43;;;1.75;;
36597;SDS011;22607;49.550;11.940;2023-02-18T04:53:36;5.95;;;2.25;;
36597;SDS011;22607;49.550;11.940;2023-02-18T04:56:02;6.03;;;1.98;;
36597;SDS011;22607;49.550;11.940;2023-02-18T04:58:30;6.35;;;2.03;;
36597;SDS011;22607;49.550;11.940;2023-02-18T05:01:00;5.65;;;1.90;;
36597;SDS011;22607;49.550;11.940;2023-02-18T05:03:29;5.60;;;1.70;;
36597;SDS011;22607;49.550;11.940;2023-02-18T05:05:56;7.32;;;2.10;;
36597;SDS011;22607;49.550;11.940;2023-02-18T05:08:23;6.18;;;1.95;;
36597;SDS011;22607;49.550;11.940;2023-02-18T05:10:49;5.82;;;1.92;;
36597;SDS011;22607;49.550;11.940;2023-02-18T05:13:16;5.50;;;2.00;;
36597;SDS011;22607;49.550;11.940;2023-02-18T05:15:43;6.75;;;1.90;;
36597;SDS011;22607;49.550;11.940;2023-02-18T05:18:09;6.38;;;2.10;;
36597;SDS011;22607;49.550;11.940;2023-02-18T05:20:36;4.22;;;1.52;;
36597;SDS011;22607;49.550;11.940;2023-02-18T05:23:02;6.68;;;2.58;;
36597;SDS011;22607;49.550;11.940;2023-02-18T05:25:34;6.18;;;1.70;;
36597;SDS011;22607;49.550;11.940;2023-02-18T05:28:01;5.82;;;1.95;;
36597;SDS011;22607;49.550;11.940;2023-02-18T05:30:27;5.43;;;1.67;;
36597;SDS011;22607;49.550;11.940;2023-02-18T05:32:54;5.38;;;1.80;;
36597;SDS011;22607;49.550;11.940;2023-02-18T05:35:21;5.68;;;1.80;;
36597;SDS011;22607;49.550;11.940;2023-02-18T05:37:53;5.88;;;1.88;;
36597;SDS011;22607;49.550;11.940;2023-02-18T05:40:19;5.20;;;1.52;;
36597;SDS011;22607;49.550;11.940;2023-02-18T05:42:47;5.55;;;2.00;;
36597;SDS011;22607;49.550;11.940;2023-02-18T05:45:14;4.90;;;1.63;;
36597;SDS011;22607;49.550;11.940;2023-02-18T05:47:40;4.50;;;1.40;;
36597;SDS011;22607;49.550;11.940;2023-02-18T05:50:07;6.38;;;1.80;;
36597;SDS011;22607;49.550;11.940;2023-02-18T05:52:34;5.72;;;1.70;;
36597;SDS011;22607;49.550;11.940;2023-02-18T05:55:00;4.68;;;1.35;;
36597;SDS011;22607;49.550;11.940;2023-02-18T05:57:27;4.43;;;1.50;;
36597;SDS011;22607;49.550;11.940;2023-02-18T05:59:55;5.28;;;1.65;;
36597;SDS011;22607;49.550;11.940;2023-02-18T06:02:23;5.03;;;1.60;;
36597;SDS011;22607;49.550;11.940;2023-02-18T06:04:49;4.55;;;1.50;;
36597;SDS011;22607;49.550;11.940;2023-02-18T06:07:16;4.97;;;1.60;;
36597;SDS011;22607;49.550;11.940;2023-02-18T06:09:43;4.38;;;1.20;;
36597;SDS011;22607;49.550;11.940;2023-02-18T06:12:09;4.68;;;1.55;;
36597;SDS011;22607;49.550;11.940;2023-02-18T06:14:36;3.80;;;1.20;;
36597;SDS011;22607;49.550;11.940;2023-02-18T06:17:03;4.53;;;1.50;;
36597;SDS011;22607;49.550;11.940;2023-02-18T06:19:30;3.05;;;1.10;;
36597;SDS011;22607;49.550;11.940;2023-02-18T06:21:56;4.20;;;1.48;;
36597;SDS011;22607;49.550;11.940;2023-02-18T06:24:23;6.60;;;2.30;;
36597;SDS011;22607;49.550;11.940;2023-02-18T06:26:49;5.68;;;1.85;;
36597;SDS011;22607;49.550;11.940;2023-02-18T06:29:16;6.28;;;2.08;;
36597;SDS011;22607;49.550;11.940;2023-02-18T06:31:42;5.43;;;1.95;;
36597;SDS011;22607;49.550;11.940;2023-02-18T06:34:15;5.90;;;1.90;;
36597;SDS011;22607;49.550;11.940;2023-02-18T06:36:41;6.90;;;2.42;;
36597;SDS011;22607;49.550;11.940;2023-02-18T06:39:08;6.45;;;2.15;;
36597;SDS011;22607;49.550;11.940;2023-02-18T06:41:34;6.40;;;2.17;;
36597;SDS011;22607;49.550;11.940;2023-02-18T06:44:02;6.38;;;1.98;;
36597;SDS011;22607;49.550;11.940;2023-02-18T06:46:29;7.32;;;2.50;;
36597;SDS011;22607;49.550;11.940;2023-02-18T06:48:55;7.07;;;2.05;;
36597;SDS011;22607;49.550;11.940;2023-02-18T06:51:22;5.72;;;2.10;;
36597;SDS011;22607;49.550;11.940;2023-02-18T06:53:48;5.78;;;1.90;;
36597;SDS011;22607;49.550;11.940;2023-02-18T06:56:15;4.78;;;1.73;;
36597;SDS011;22607;49.550;11.940;2023-02-18T06:58:42;5.63;;;1.75;;
36597;SDS011;22607;49.550;11.940;2023-02-18T07:01:08;5.80;;;1.95;;
36597;SDS011;22607;49.550;11.940;2023-02-18T07:03:35;5.60;;;2.00;;
36597;SDS011;22607;49.550;11.940;2023-02-18T07:06:02;6.63;;;2.20;;
36597;SDS011;22607;49.550;11.940;2023-02-18T07:08:28;6.60;;;1.88;;
36597;SDS011;22607;49.550;11.940;2023-02-18T07:10:56;5.82;;;1.65;;
36597;SDS011;22607;49.550;11.940;2023-02-18T07:13:22;5.78;;;1.98;;
36597;SDS011;22607;49.550;11.940;2023-02-18T07:15:49;7.07;;;2.50;;
36597;SDS011;22607;49.550;11.940;2023-02-18T07:18:21;6.50;;;2.13;;
36597;SDS011;22607;49.550;11.940;2023-02-18T07:20:50;6.45;;;2.20;;
36597;SDS011;22607;49.550;11.940;2023-02-18T07:25:48;6.03;;;2.10;;
36597;SDS011;22607;49.550;11.940;2023-02-18T07:28:14;6.32;;;2.45;;
36597;SDS011;22607;49.550;11.940;2023-02-18T07:30:41;7.28;;;2.80;;
36597;SDS011;22607;49.550;11.940;2023-02-18T07:33:08;7.00;;;2.63;;
36597;SDS011;22607;49.550;11.940;2023-02-18T07:35:37;7.72;;;3.25;;
36597;SDS011;22607;49.550;11.940;2023-02-18T07:38:13;7.80;;;3.33;;
36597;SDS011;22607;49.550;11.940;2023-02-18T07:40:39;8.20;;;3.67;;
36597;SDS011;22607;49.550;11.940;2023-02-18T07:43:06;7.65;;;3.72;;
36597;SDS011;22607;49.550;11.940;2023-02-18T07:45:32;7.85;;;3.38;;
36597;SDS011;22607;49.550;11.940;2023-02-18T07:47:59;10.55;;;5.13;;
36597;SDS011;22607;49.550;11.940;2023-02-18T07:50:25;9.02;;;4.43;;
36597;SDS011;22607;49.550;11.940;2023-02-18T07:52:52;10.10;;;4.53;;
36597;SDS011;22607;49.550;11.940;2023-02-18T07:55:18;10.43;;;5.38;;
36597;SDS011;22607;49.550;11.940;2023-02-18T07:57:45;9.45;;;4.82;;
36597;SDS011;22607;49.550;11.940;2023-02-18T08:00:32;11.20;;;5.38;;
36597;SDS011;22607;49.550;11.940;2023-02-18T08:02:58;9.52;;;4.75;;
36597;SDS011;22607;49.550;11.940;2023-02-18T08:05:24;10.95;;;5.97;;
36597;SDS011;22607;49.550;11.940;2023-02-18T08:07:51;12.07;;;5.57;;
36597;SDS011;22607;49.550;11.940;2023-02-18T08:10:17;10.20;;;5.55;;
36597;SDS011;22607;49.550;11.940;2023-02-18T08:12:44;12.10;;;6.72;;
36597;SDS011;22607;49.550;11.940;2023-02-18T08:15:11;11.00;;;6.00;;
36597;SDS011;22607;49.550;11.940;2023-02-18T08:17:40;11.90;;;6.53;;
36597;SDS011;22607;49.550;11.940;2023-02-18T08:20:08;12.25;;;6.55;;
36597;SDS011;22607;49.550;11.940;2023-02-18T08:22:36;11.98;;;5.88;;
36597;SDS011;22607;49.550;11.940;2023-02-18T08:25:03;11.63;;;6.45;;
36597;SDS011;22607;49.550;11.940;2023-02-18T08:27:30;12.30;;;6.75;;
36597;SDS011;22607;49.550;11.940;2023-02-18T08:29:57;11.45;;;6.32;;
36597;SDS011;22607;49.550;11.940;2023-02-18T08:32:26;12.35;;;6.53;;
36597;SDS011;22607;49.550;11.940;2023-02-18T08:34:54;12.48;;;6.35;;
36597;SDS011;22607;49.550;11.940;2023-02-18T08:37:21;13.85;;;7.07;;
36597;SDS011;22607;49.550;11.940;2023-02-18T08:39:49;12.48;;;7.10;;
36597;SDS011;22607;49.550;11.940;2023-02-18T08:42:16;13.35;;;7.38;;
36597;SDS011;22607;49.550;11.940;2023-02-18T08:44:43;12.63;;;7.70;;
36597;SDS011;22607;49.550;11.940;2023-02-18T08:47:09;13.60;;;8.10;;
36597;SDS011;22607;49.550;11.940;2023-02-18T08:50:05;13.30;;;6.82;;
36597;SDS011;22607;49.550;11.940;2023-02-18T08:52:32;16.08;;;7.68;;
36597;SDS011;22607;49.550;11.940;2023-02-18T08:55:04;11.65;;;7.10;;
36597;SDS011;22607;49.550;11.940;2023-02-18T08:57:37;12.43;;;6.55;;
36597;SDS011;22607;49.550;11.940;2023-02-18T09:00:04;11.82;;;6.20;;
36597;SDS011;22607;49.550;11.940;2023-02-18T09:02:35;11.05;;;6.45;;
36597;SDS011;22607;49.550;11.940;2023-02-18T09:05:07;12.88;;;7.75;;
36597;SDS011;22607;49.550;11.940;2023-02-18T09:07:35;12.50;;;6.97;;
36597;SDS011;22607;49.550;11.940;2023-02-18T09:10:02;12.68;;;7.50;;
36597;SDS011;22607;49.550;11.940;2023-02-18T09:12:30;13.40;;;8.07;;
36597;SDS011;22607;49.550;11.940;2023-02-18T09:14:58;11.40;;;6.15;;
36597;SDS011;22607;49.550;11.940;2023-02-18T09:17:25;10.27;;;6.07;;
36597;SDS011;22607;49.550;11.940;2023-02-18T09:19:53;10.55;;;5.68;;
36597;SDS011;22607;49.550;11.940;2023-02-18T09:22:19;10.70;;;5.95;;
36597;SDS011;22607;49.550;11.940;2023-02-18T09:24:46;11.75;;;6.43;;
36597;SDS011;22607;49.550;11.940;2023-02-18T09:27:19;11.63;;;6.63;;
36597;SDS011;22607;49.550;11.940;2023-02-18T09:29:47;10.55;;;6.13;;
36597;SDS011;22607;49.550;11.940;2023-02-18T09:32:15;11.90;;;6.32;;
36597;SDS011;22607;49.550;11.940;2023-02-18T09:35:00;11.45;;;6.57;;
36597;SDS011;22607;49.550;11.940;2023-02-18T09:37:27;10.73;;;5.90;;
36597;SDS011;22607;49.550;11.940;2023-02-18T09:39:54;9.27;;;5.30;;
36597;SDS011;22607;49.550;11.940;2023-02-18T09:42:23;10.15;;;5.45;;
36597;SDS011;22607;49.550;11.940;2023-02-18T09:44:59;10.40;;;5.82;;
36597;SDS011;22607;49.550;11.940;2023-02-18T09:47:36;9.63;;;5.00;;
36597;SDS011;22607;49.550;11.940;2023-02-18T09:50:27;10.30;;;5.65;;
36597;SDS011;22607;49.550;11.940;2023-02-18T09:52:53;9.30;;;4.88;;
36597;SDS011;22607;49.550;11.940;2023-02-18T09:55:34;9.05;;;4.28;;
36597;SDS011;22607;49.550;11.940;2023-02-18T09:58:11;8.90;;;4.53;;
36597;SDS011;22607;49.550;11.940;2023-02-18T10:00:44;10.50;;;4.93;;
36597;SDS011;22607;49.550;11.940;2023-02-18T10:03:18;9.80;;;5.05;;
36597;SDS011;22607;49.550;11.940;2023-02-18T10:05:54;11.10;;;5.65;;
36597;SDS011;22607;49.550;11.940;2023-02-18T10:08:29;9.18;;;4.45;;
36597;SDS011;22607;49.550;11.940;2023-02-18T10:11:00;9.10;;;4.72;;
36597;SDS011;22607;49.550;11.940;2023-02-18T10:13:28;9.25;;;4.47;;
36597;SDS011;22607;49.550;11.940;2023-02-18T10:15:58;9.23;;;4.53;;
36597;SDS011;22607;49.550;11.940;2023-02-18T10:18:38;8.75;;;4.18;;
36597;SDS011;22607;49.550;11.940;2023-02-18T10:21:11;8.77;;;3.83;;
36597;SDS011;22607;49.550;11.940;2023-02-18T10:23:42;8.18;;;3.80;;
36597;SDS011;22607;49.550;11.940;2023-02-18T10:26:18;10.13;;;4.28;;
36597;SDS011;22607;49.550;11.940;2023-02-18T10:28:45;8.35;;;3.65;;
36597;SDS011;22607;49.550;11.940;2023-02-18T10:31:19;8.27;;;4.00;;
36597;SDS011;22607;49.550;11.940;2023-02-18T10:34:06;9.55;;;4.70;;
36597;SDS011;22607;49.550;11.940;2023-02-18T10:36:54;8.55;;;3.90;;
36597;SDS011;22607;49.550;11.940;2023-02-18T10:44:42;8.38;;;3.70;;
36597;SDS011;22607;49.550;11.940;2023-02-18T10:47:15;9.15;;;3.83;;
36597;SDS011;22607;49.550;11.940;2023-02-18T10:52:19;8.00;;;3.13;;
36597;SDS011;22607;49.550;11.940;2023-02-18T10:54:51;8.68;;;3.38;;
36597;SDS011;22607;49.550;11.940;2023-02-18T10:57:19;7.50;;;2.92;;
36597;SDS011;22607;49.550;11.940;2023-02-18T10:59:56;7.90;;;2.95;;
36597;SDS011;22607;49.550;11.940;2023-02-18T11:02:41;8.07;;;2.70;;
36597;SDS011;22607;49.550;11.940;2023-02-18T11:05:26;7.55;;;3.00;;
36597;SDS011;22607;49.550;11.940;2023-02-18T11:07:56;7.75;;;2.47;;
36597;SDS011;22607;49.550;11.940;2023-02-18T11:10:30;7.47;;;2.72;;
36597;SDS011;22607;49.550;11.940;2023-02-18T11:13:02;8.95;;;2.88;;
36597;SDS011;22607;49.550;11.940;2023-02-18T11:15:34;7.75;;;3.20;;
36597;SDS011;22607;49.550;11.940;2023-02-18T11:18:12;7.57;;;2.92;;
36597;SDS011;22607;49.550;11.940;2023-02-18T11:21:00;7.90;;;2.70;;
36597;SDS011;22607;49.550;11.940;2023-02-18T11:23:31;7.78;;;2.90;;
36597;SDS011;22607;49.550;11.940;2023-02-18T11:26:14;7.10;;;2.70;;
36597;SDS011;22607;49.550;11.940;2023-02-18T11:28:44;7.68;;;2.97;;
36597;SDS011;22607;49.550;11.940;2023-02-18T11:31:21;7.47;;;2.78;;
36597;SDS011;22607;49.550;11.940;2023-02-18T11:33:59;7.50;;;2.60;;
36597;SDS011;22607;49.550;11.940;2023-02-18T11:36:32;7.05;;;2.53;;
36597;SDS011;22607;49.550;11.940;2023-02-18T11:39:13;8.80;;;2.72;;
36597;SDS011;22607;49.550;11.940;2023-02-18T11:42:00;7.18;;;2.95;;
36597;SDS011;22607;49.550;11.940;2023-02-18T11:44:33;7.22;;;2.75;;
36597;SDS011;22607;49.550;11.940;2023-02-18T11:49:40;8.68;;;3.28;;
36597;SDS011;22607;49.550;11.940;2023-02-18T11:55:16;6.30;;;2.30;;
36597;SDS011;22607;49.550;11.940;2023-02-18T11:58:03;8.43;;;2.53;;
36597;SDS011;22607;49.550;11.940;2023-02-18T12:00:39;8.45;;;2.65;;
36597;SDS011;22607;49.550;11.940;2023-02-18T12:06:14;7.35;;;2.72;;
36597;SDS011;22607;49.550;11.940;2023-02-18T12:09:00;6.90;;;2.58;;
36597;SDS011;22607;49.550;11.940;2023-02-18T12:11:33;7.00;;;2.45;;
36597;SDS011;22607;49.550;11.940;2023-02-18T12:14:08;6.85;;;2.65;;
36597;SDS011;22607;49.550;11.940;2023-02-18T12:16:44;7.30;;;2.70;;
36597;SDS011;22607;49.550;11.940;2023-02-18T12:21:56;7.30;;;2.80;;
36597;SDS011;22607;49.550;11.940;2023-02-18T12:27:47;6.80;;;2.47;;
36597;SDS011;22607;49.550;11.940;2023-02-18T12:30:47;6.60;;;2.33;;
36597;SDS011;22607;49.550;11.940;2023-02-18T13:10:18;7.18;;;2.78;;
36597;SDS011;22607;49.550;11.940;2023-02-18T13:13:02;7.30;;;2.70;;
36597;SDS011;22607;49.550;11.940;2023-02-18T13:18:30;7.93;;;2.50;;
36597;SDS011;22607;49.550;11.940;2023-02-18T13:21:11;6.50;;;2.42;;
36597;SDS011;22607;49.550;11.940;2023-02-18T13:24:01;6.25;;;2.17;;
36597;SDS011;22607;49.550;11.940;2023-02-18T13:26:31;7.07;;;2.50;;
36597;SDS011;22607;49.550;11.940;2023-02-18T13:40:29;6.63;;;2.60;;
36597;SDS011;22607;49.550;11.940;2023-02-18T13:46:14;6.65;;;2.20;;
36597;SDS011;22607;49.550;11.940;2023-02-18T13:51:36;7.65;;;2.80;;
36597;SDS011;22607;49.550;11.940;2023-02-18T13:56:38;8.15;;;2.83;;
36597;SDS011;22607;49.550;11.940;2023-02-18T13:59:19;7.30;;;2.60;;
36597;SDS011;22607;49.550;11.940;2023-02-18T14:02:28;6.85;;;2.15;;
36597;SDS011;22607;49.550;11.940;2023-02-18T14:05:15;6.20;;;2.30;;
36597;SDS011;22607;49.550;11.940;2023-02-18T14:07:51;7.20;;;2.55;;
36597;SDS011;22607;49.550;11.940;2023-02-18T14:10:32;6.13;;;2.20;;
36597;SDS011;22607;49.550;11.940;2023-02-18T14:15:48;7.32;;;2.60;;
36597;SDS011;22607;49.550;11.940;2023-02-18T14:18:53;5.47;;;1.80;;
36597;SDS011;22607;49.550;11.940;2023-02-18T14:21:37;6.43;;;2.13;;
36597;SDS011;22607;49.550;11.940;2023-02-18T14:24:11;6.50;;;2.10;;
36597;SDS011;22607;49.550;11.940;2023-02-18T14:26:47;7.82;;;2.42;;
36597;SDS011;22607;49.550;11.940;2023-02-18T14:29:27;6.43;;;2.00;;
36597;SDS011;22607;49.550;11.940;2023-02-18T14:31:59;6.53;;;2.08;;
36597;SDS011;22607;49.550;11.940;2023-02-18T14:34:40;5.22;;;1.75;;
36597;SDS011;22607;49.550;11.940;2023-02-18T14:51:25;8.30;;;2.78;;
36597;SDS011;22607;49.550;11.940;2023-02-18T14:53:54;7.82;;;2.92;;
36597;SDS011;22607;49.550;11.940;2023-02-18T14:56:23;7.63;;;2.90;;
36597;SDS011;22607;49.550;11.940;2023-02-18T14:58:56;7.82;;;2.35;;
36597;SDS011;22607;49.550;11.940;2023-02-18T15:01:33;7.72;;;3.15;;
36597;SDS011;22607;49.550;11.940;2023-02-18T15:04:01;8.90;;;2.65;;
36597;SDS011;22607;49.550;11.940;2023-02-18T15:06:30;7.78;;;3.33;;
36597;SDS011;22607;49.550;11.940;2023-02-18T15:08:59;8.98;;;3.30;;
36597;SDS011;22607;49.550;11.940;2023-02-18T15:11:39;7.35;;;2.75;;
36597;SDS011;22607;49.550;11.940;2023-02-18T15:14:09;7.10;;;2.40;;
36597;SDS011;22607;49.550;11.940;2023-02-18T15:16:41;10.80;;;3.20;;
36597;SDS011;22607;49.550;11.940;2023-02-18T15:19:14;8.18;;;3.30;;
36597;SDS011;22607;49.550;11.940;2023-02-18T15:21:48;7.97;;;3.10;;
36597;SDS011;22607;49.550;11.940;2023-02-18T15:26:44;7.20;;;2.90;;
36597;SDS011;22607;49.550;11.940;2023-02-18T15:29:20;8.07;;;3.40;;
36597;SDS011;22607;49.550;11.940;2023-02-18T15:31:48;7.47;;;3.00;;
36597;SDS011;22607;49.550;11.940;2023-02-18T15:34:28;7.57;;;2.97;;
36597;SDS011;22607;49.550;11.940;2023-02-18T15:37:06;7.72;;;3.22;;
36597;SDS011;22607;49.550;11.940;2023-02-18T15:39:40;7.70;;;2.85;;
36597;SDS011;22607;49.550;11.940;2023-02-18T15:45:03;7.85;;;3.47;;
36597;SDS011;22607;49.550;11.940;2023-02-18T15:47:44;8.02;;;3.35;;
36597;SDS011;22607;49.550;11.940;2023-02-18T15:50:17;8.20;;;3.63;;
36597;SDS011;22607;49.550;11.940;2023-02-18T15:52:52;8.13;;;3.63;;
36597;SDS011;22607;49.550;11.940;2023-02-18T15:58:20;9.23;;;3.95;;
36597;SDS011;22607;49.550;11.940;2023-02-18T16:00:53;8.05;;;3.63;;
36597;SDS011;22607;49.550;11.940;2023-02-18T16:03:22;8.32;;;3.90;;
36597;SDS011;22607;49.550;11.940;2023-02-18T16:05:49;9.52;;;4.32;;
36597;SDS011;22607;49.550;11.940;2023-02-18T16:08:25;9.20;;;4.10;;
36597;SDS011;22607;49.550;11.940;2023-02-18T16:11:10;8.90;;;4.38;;
36597;SDS011;22607;49.550;11.940;2023-02-18T16:13:45;9.02;;;4.03;;
36597;SDS011;22607;49.550;11.940;2023-02-18T16:16:21;10.73;;;4.22;;
36597;SDS011;22607;49.550;11.940;2023-02-18T16:18:59;9.57;;;4.40;;
36597;SDS011;22607;49.550;11.940;2023-02-18T16:21:44;8.85;;;3.95;;
36597;SDS011;22607;49.550;11.940;2023-02-18T16:24:21;9.60;;;4.10;;
36597;SDS011;22607;49.550;11.940;2023-02-18T16:26:52;8.98;;;3.67;;
36597;SDS011;22607;49.550;11.940;2023-02-18T16:29:25;9.02;;;4.20;;
36597;SDS011;22607;49.550;11.940;2023-02-18T16:32:00;9.07;;;3.95;;
36597;SDS011;22607;49.550;11.940;2023-02-18T16:34:29;9.13;;;4.18;;
36597;SDS011;22607;49.550;11.940;2023-02-18T16:37:01;8.15;;;3.83;;
36597;SDS011;22607;49.550;11.940;2023-02-18T16:39:48;8.75;;;4.10;;
36597;SDS011;22607;49.550;11.940;2023-02-18T16:42:17;9.10;;;3.97;;
36597;SDS011;22607;49.550;11.940;2023-02-18T16:44:48;8.88;;;3.83;;
36597;SDS011;22607;49.550;11.940;2023-02-18T16:47:26;9.13;;;4.30;;
36597;SDS011;22607;49.550;11.940;2023-02-18T16:49:53;8.82;;;4.18;;
36597;SDS011;22607;49.550;11.940;2023-02-18T16:52:21;9.45;;;4.07;;
36597;SDS011;22607;49.550;11.940;2023-02-18T16:54:48;8.30;;;3.80;;
36597;SDS011;22607;49.550;11.940;2023-02-18T16:57:15;8.60;;;3.80;;
36597;SDS011;22607;49.550;11.940;2023-02-18T16:59:44;9.93;;;4.85;;
36597;SDS011;22607;49.550;11.940;2023-02-18T17:02:20;9.05;;;4.35;;
36597;SDS011;22607;49.550;11.940;2023-02-18T17:04:55;9.00;;;4.25;;
36597;SDS011;22607;49.550;11.940;2023-02-18T17:07:23;8.68;;;3.63;;
36597;SDS011;22607;49.550;11.940;2023-02-18T17:09:52;9.65;;;4.80;;
36597;SDS011;22607;49.550;11.940;2023-02-18T17:12:18;9.98;;;4.70;;
36597;SDS011;22607;49.550;11.940;2023-02-18T17:14:45;9.95;;;4.18;;
36597;SDS011;22607;49.550;11.940;2023-02-18T17:19:48;9.52;;;4.78;;
36597;SDS011;22607;49.550;11.940;2023-02-18T17:22:14;9.70;;;4.85;;
36597;SDS011;22607;49.550;11.940;2023-02-18T17:24:41;9.02;;;4.53;;
36597;SDS011;22607;49.550;11.940;2023-02-18T17:27:08;9.73;;;4.30;;
36597;SDS011;22607;49.550;11.940;2023-02-18T17:29:36;11.70;;;5.25;;
36597;SDS011;22607;49.550;11.940;2023-02-18T17:32:03;10.35;;;5.07;;